Time;durP1;ratioP1;P1;durP2;ratioP2;P2;SDS_P1;SDS_P2;PMS_P1;PMS_P2;Temp;Humidity;BMP_temperature;BMP_pressure;BME280_temperature;BME280_humidity;BME280_pressure;Samples;Min_cycle;Max_cycle;Signal;HPM_P1;HPM_P2
2023/10/22 00:00:20;;;;;;;5.60;2.60;;;10.90;98.00;;;;;;5074100;28;20458;-67
2023/10/22 00:02:49;;;;;;;3.83;2.73;;;11.00;98.00;;;;;;5073893;28;20493;-67
2023/10/22 00:05:16;;;;;;;4.97;3.03;;;11.20;98.00;;;;;;5073852;28;20449;-67
2023/10/22 00:07:43;;;;;;;4.60;3.00;;;11.20;98.00;;;;;;5073783;28;20450;-67
2023/10/22 00:10:11;;;;;;;3.23;2.43;;;11.20;98.00;;;;;;5074033;28;20461;-68
2023/10/22 00:12:38;;;;;;;4.47;2.57;;;11.10;98.00;;;;;;5073732;28;20510;-67
2023/10/22 00:15:06;;;;;;;4.20;2.37;;;11.00;98.00;;;;;;5073887;28;20451;-67
2023/10/22 00:17:34;;;;;;;6.93;2.33;;;11.00;98.00;;;;;;5073690;28;20456;-68
2023/10/22 00:20:05;;;;;;;2.97;2.20;;;10.90;98.00;;;;;;5074362;28;20522;-68
2023/10/22 00:22:32;;;;;;;3.83;2.47;;;10.90;98.00;;;;;;5073690;28;20455;-67
2023/10/22 00:25:01;;;;;;;6.07;2.67;;;10.70;98.00;;;;;;5073708;28;20473;-68
2023/10/22 00:27:28;;;;;;;4.70;2.87;;;10.80;98.00;;;;;;5073371;28;20459;-67
2023/10/22 00:29:55;;;;;;;3.47;2.60;;;10.60;98.00;;;;;;5073643;28;20457;-67
2023/10/22 00:32:22;;;;;;;7.20;2.80;;;10.50;98.00;;;;;;5073261;28;20447;-67
2023/10/22 00:34:49;;;;;;;4.20;2.60;;;10.50;98.00;;;;;;5073349;28;20954;-67
2023/10/22 00:37:18;;;;;;;4.37;2.73;;;10.50;98.00;;;;;;5073271;28;20447;-68
2023/10/22 00:39:45;;;;;;;3.87;2.63;;;10.40;98.00;;;;;;5073133;28;20542;-68
2023/10/22 00:42:12;;;;;;;4.63;2.70;;;10.30;98.00;;;;;;5073113;28;20453;-67
2023/10/22 00:44:39;;;;;;;4.63;2.97;;;10.20;98.00;;;;;;5073294;28;20897;-70
2023/10/22 00:47:07;;;;;;;5.90;3.10;;;10.20;98.00;;;;;;5073283;28;20544;-67
2023/10/22 00:49:35;;;;;;;5.20;2.73;;;10.10;98.00;;;;;;5072908;28;20455;-67
2023/10/22 00:52:08;;;;;;;6.63;3.40;;;10.00;98.00;;;;;;5072833;28;20716;-67
2023/10/22 00:54:37;;;;;;;5.90;3.43;;;10.10;98.00;;;;;;5072993;28;20846;-67
2023/10/22 00:57:05;;;;;;;7.50;3.60;;;10.10;98.00;;;;;;5072865;28;20507;-67
2023/10/22 00:59:33;;;;;;;6.97;2.90;;;10.10;98.00;;;;;;5072741;28;20455;-67
2023/10/22 01:02:01;;;;;;;5.50;2.83;;;10.10;98.00;;;;;;5072661;28;20826;-68
2023/10/22 01:04:28;;;;;;;6.37;3.20;;;10.20;98.00;;;;;;5072713;28;20491;-68
2023/10/22 01:06:55;;;;;;;4.77;2.70;;;10.20;98.00;;;;;;5072557;28;20450;-67
2023/10/22 01:09:22;;;;;;;4.97;2.90;;;10.30;98.00;;;;;;5072579;28;20455;-67
2023/10/22 01:12:00;;;;;;;4.97;3.10;;;10.30;98.00;;;;;;5072418;28;20984;-67
2023/10/22 01:14:27;;;;;;;5.83;3.27;;;10.10;98.00;;;;;;5072596;28;20450;-67
2023/10/22 01:16:54;;;;;;;6.33;3.20;;;10.00;98.00;;;;;;5072532;28;20509;-67
2023/10/22 01:19:22;;;;;;;6.40;3.53;;;10.10;98.00;;;;;;5072392;28;20463;-67
2023/10/22 01:21:49;;;;;;;5.60;3.20;;;10.10;98.00;;;;;;5072564;28;20524;-68
2023/10/22 01:24:18;;;;;;;5.87;3.43;;;10.10;98.00;;;;;;5072151;28;20483;-67
2023/10/22 01:26:45;;;;;;;6.80;2.93;;;10.20;98.00;;;;;;5072198;28;20505;-68
2023/10/22 01:29:13;;;;;;;4.10;2.77;;;10.20;98.00;;;;;;5072261;28;20463;-68
2023/10/22 01:31:40;;;;;;;4.00;2.80;;;10.10;98.00;;;;;;5072040;28;20452;-67
2023/10/22 01:34:07;;;;;;;5.10;3.07;;;10.00;98.00;;;;;;5072251;28;20948;-67
2023/10/22 01:36:34;;;;;;;6.10;3.07;;;10.10;98.00;;;;;;5072004;28;20818;-68
2023/10/22 01:39:01;;;;;;;8.13;2.80;;;10.00;98.00;;;;;;5072221;28;20458;-68
2023/10/22 01:41:30;;;;;;;5.90;3.33;;;9.90;98.00;;;;;;5071885;28;20456;-67
2023/10/22 01:43:58;;;;;;;4.80;2.90;;;9.90;98.00;;;;;;5071954;28;20573;-67
2023/10/22 01:46:25;;;;;;;5.97;3.20;;;9.70;98.00;;;;;;5071787;28;20509;-67
2023/10/22 01:48:52;;;;;;;13.60;3.40;;;9.80;98.00;;;;;;5071918;28;20443;-67
2023/10/22 01:51:19;;;;;;;5.53;3.13;;;9.90;98.00;;;;;;5071815;28;20463;-67
2023/10/22 01:53:46;;;;;;;4.10;2.57;;;9.90;98.00;;;;;;5071831;28;20448;-67
2023/10/22 01:56:14;;;;;;;5.33;3.10;;;9.90;98.00;;;;;;5071859;28;20445;-67
2023/10/22 01:58:44;;;;;;;6.00;2.80;;;9.80;98.00;;;;;;5070581;28;20510;-67
2023/10/22 02:01:12;;;;;;;7.33;3.23;;;9.80;98.00;;;;;;5071917;28;20864;-67
2023/10/22 02:03:40;;;;;;;4.03;2.80;;;9.80;98.00;;;;;;5071035;28;20479;-67
2023/10/22 02:06:14;;;;;;;4.40;3.17;;;9.80;98.00;;;;;;5071649;28;20476;-67
2023/10/22 02:08:42;;;;;;;5.30;3.30;;;9.80;98.00;;;;;;5070193;28;20456;-67
2023/10/22 02:11:09;;;;;;;6.57;3.80;;;9.70;98.00;;;;;;5070264;28;20927;-67
2023/10/22 02:13:36;;;;;;;8.13;3.93;;;9.60;98.00;;;;;;5071425;28;20460;-67
2023/10/22 02:16:05;;;;;;;8.00;3.83;;;9.70;98.00;;;;;;5071534;28;20464;-67
2023/10/22 02:18:32;;;;;;;7.13;3.10;;;9.70;98.00;;;;;;5071205;28;20456;-67
2023/10/22 02:21:02;;;;;;;5.60;3.50;;;9.80;98.00;;;;;;5070969;28;20469;-67
2023/10/22 02:23:29;;;;;;;6.30;3.30;;;9.80;98.00;;;;;;5070970;28;20453;-67
2023/10/22 02:25:57;;;;;;;6.07;3.50;;;9.60;98.00;;;;;;5071047;28;20451;-67
2023/10/22 02:28:24;;;;;;;7.23;3.50;;;9.60;98.00;;;;;;5071163;28;20499;-68
2023/10/22 02:30:51;;;;;;;7.83;3.50;;;9.60;98.00;;;;;;5070915;28;20458;-67
2023/10/22 02:33:19;;;;;;;5.90;3.60;;;9.70;98.00;;;;;;5071022;28;20447;-68
2023/10/22 02:35:47;;;;;;;7.73;3.17;;;9.60;98.00;;;;;;5071207;28;20449;-67
2023/10/22 02:38:15;;;;;;;5.27;2.90;;;9.50;98.00;;;;;;5070911;28;20954;-67
2023/10/22 02:40:43;;;;;;;7.93;3.50;;;9.50;98.00;;;;;;5071222;28;20974;-68
2023/10/22 02:43:11;;;;;;;4.87;3.10;;;9.50;98.00;;;;;;5070893;28;20959;-67
2023/10/22 02:45:38;;;;;;;6.00;3.43;;;9.40;98.00;;;;;;5071062;28;20896;-67
2023/10/22 02:48:06;;;;;;;4.20;2.93;;;9.30;98.00;;;;;;5071041;28;20487;-67
2023/10/22 02:50:39;;;;;;;6.20;3.20;;;9.30;98.00;;;;;;5070875;28;20449;-67
2023/10/22 02:53:06;;;;;;;4.60;2.90;;;9.40;98.00;;;;;;5070790;28;20485;-67
2023/10/22 02:55:33;;;;;;;5.37;2.80;;;9.30;98.00;;;;;;5070765;28;20461;-67
2023/10/22 02:58:00;;;;;;;6.00;2.83;;;9.40;98.00;;;;;;5070804;28;20460;-67
2023/10/22 03:00:28;;;;;;;6.10;3.10;;;9.40;98.00;;;;;;5070773;28;20503;-67
2023/10/22 03:02:55;;;;;;;5.90;3.30;;;9.20;98.00;;;;;;5069530;28;20493;-67
2023/10/22 03:05:22;;;;;;;5.67;3.17;;;9.20;98.00;;;;;;5070723;28;20485;-67
2023/10/22 03:07:51;;;;;;;11.00;3.50;;;9.20;98.00;;;;;;5070622;28;20453;-67
2023/10/22 03:10:19;;;;;;;5.90;3.20;;;9.10;98.00;;;;;;5070614;28;20452;-68
2023/10/22 03:12:46;;;;;;;9.50;3.10;;;9.00;98.00;;;;;;5070695;28;20522;-68
2023/10/22 03:15:13;;;;;;;5.20;3.03;;;9.00;98.00;;;;;;5072596;28;20449;-68
2023/10/22 03:17:40;;;;;;;4.87;2.90;;;9.00;98.00;;;;;;5074546;28;20445;-68
2023/10/22 03:20:10;;;;;;;4.00;2.70;;;8.90;98.00;;;;;;5074840;28;20508;-68
2023/10/22 03:22:37;;;;;;;5.20;2.60;;;8.80;98.00;;;;;;5074519;28;20526;-68
2023/10/22 03:25:07;;;;;;;5.80;2.80;;;8.90;98.00;;;;;;5074607;28;20520;-68
2023/10/22 03:27:35;;;;;;;4.03;2.50;;;9.00;98.00;;;;;;5074559;28;20469;-68
2023/10/22 03:30:03;;;;;;;3.70;2.73;;;9.00;98.00;;;;;;5074749;28;20457;-68
2023/10/22 03:32:30;;;;;;;6.77;3.10;;;8.90;98.00;;;;;;5074446;28;20971;-68
2023/10/22 03:34:57;;;;;;;4.30;2.73;;;8.80;98.00;;;;;;5074627;28;20526;-68
2023/10/22 03:37:27;;;;;;;4.53;2.43;;;8.90;98.00;;;;;;5074463;28;20453;-68
2023/10/22 03:39:54;;;;;;;4.83;2.80;;;8.90;98.00;;;;;;5073475;28;20463;-68
2023/10/22 03:42:22;;;;;;;6.73;2.47;;;8.90;98.00;;;;;;5074582;28;20456;-68
2023/10/22 03:44:49;;;;;;;3.37;2.20;;;9.00;98.00;;;;;;5074467;28;20847;-68
2023/10/22 03:47:17;;;;;;;5.97;2.57;;;9.00;98.00;;;;;;5074167;28;20459;-68
2023/10/22 03:49:44;;;;;;;4.47;2.60;;;9.00;98.00;;;;;;5074374;28;20544;-67
2023/10/22 03:52:11;;;;;;;3.00;2.17;;;9.00;98.00;;;;;;5072928;28;20445;-68
2023/10/22 03:54:38;;;;;;;3.23;2.30;;;9.10;98.00;;;;;;5072925;28;20463;-67
2023/10/22 03:57:05;;;;;;;4.77;2.30;;;9.10;98.00;;;;;;5074071;28;20502;-68
2023/10/22 03:59:33;;;;;;;4.33;2.30;;;9.00;98.00;;;;;;5074032;28;20833;-68
2023/10/22 04:02:00;;;;;;;4.20;2.50;;;9.10;98.00;;;;;;5073948;28;20487;-68
2023/10/22 04:04:27;;;;;;;3.10;2.40;;;9.00;98.00;;;;;;5073799;28;20484;-68
2023/10/22 04:06:54;;;;;;;5.03;2.13;;;9.00;98.00;;;;;;5073940;28;20804;-68
2023/10/22 04:09:21;;;;;;;4.97;1.90;;;9.10;98.00;;;;;;5074071;28;20460;-68
2023/10/22 04:11:48;;;;;;;3.67;2.10;;;9.00;98.00;;;;;;5073845;28;20814;-68
2023/10/22 04:14:16;;;;;;;2.97;2.20;;;9.00;98.00;;;;;;5073741;28;20453;-68
2023/10/22 04:16:44;;;;;;;3.30;2.23;;;8.90;98.00;;;;;;5073742;28;20449;-68
2023/10/22 04:19:11;;;;;;;7.30;2.30;;;8.70;98.00;;;;;;5073733;28;20459;-68
2023/10/22 04:21:39;;;;;;;3.93;2.23;;;8.70;98.00;;;;;;5073517;28;20458;-67
2023/10/22 04:24:07;;;;;;;3.00;2.30;;;8.90;98.00;;;;;;5073482;28;20870;-68
2023/10/22 04:26:34;;;;;;;3.53;2.30;;;8.90;98.00;;;;;;5072848;28;20454;-68
2023/10/22 04:29:01;;;;;;;2.93;1.90;;;9.00;98.00;;;;;;5073517;28;20793;-68
2023/10/22 04:31:28;;;;;;;4.17;2.17;;;8.90;98.00;;;;;;5072174;28;20532;-67
2023/10/22 04:33:57;;;;;;;2.80;2.10;;;8.80;98.00;;;;;;5073532;28;20927;-68
2023/10/22 04:36:24;;;;;;;3.17;2.27;;;8.80;98.00;;;;;;5073255;28;20875;-67
2023/10/22 04:38:51;;;;;;;2.63;2.27;;;8.80;98.00;;;;;;5073531;28;20452;-68
2023/10/22 04:41:19;;;;;;;3.73;2.43;;;8.70;98.00;;;;;;5073209;28;20446;-67
2023/10/22 04:43:46;;;;;;;3.20;2.40;;;8.80;98.00;;;;;;5073110;28;20459;-68
2023/10/22 04:46:13;;;;;;;3.03;2.30;;;8.90;98.00;;;;;;5073160;28;20575;-68
2023/10/22 04:48:40;;;;;;;3.60;2.40;;;8.90;98.00;;;;;;5073115;28;20457;-68
2023/10/22 04:51:13;;;;;;;6.00;2.20;;;8.70;98.00;;;;;;5073286;28;20452;-68
2023/10/22 04:53:40;;;;;;;2.40;2.00;;;8.70;98.00;;;;;;5073069;28;20529;-67
2023/10/22 04:56:07;;;;;;;2.80;1.90;;;8.70;98.00;;;;;;5073038;28;20510;-68
2023/10/22 04:58:35;;;;;;;2.93;2.27;;;8.70;98.00;;;;;;5071722;28;20478;-68
2023/10/22 05:01:02;;;;;;;2.90;1.97;;;8.80;98.00;;;;;;5072959;28;20539;-67
2023/10/22 05:03:29;;;;;;;3.30;1.97;;;8.80;98.00;;;;;;5072921;28;20457;-68
2023/10/22 05:05:56;;;;;;;2.37;1.90;;;8.80;98.00;;;;;;5072786;28;20529;-67
2023/10/22 05:08:26;;;;;;;3.53;2.50;;;8.80;98.00;;;;;;5072592;28;21155;-67
2023/10/22 05:10:53;;;;;;;4.07;2.20;;;8.80;98.00;;;;;;5072993;28;20453;-68
2023/10/22 05:13:22;;;;;;;3.17;1.80;;;8.80;98.00;;;;;;5072694;28;20451;-68
2023/10/22 05:15:54;;;;;;;5.80;2.00;;;8.80;98.00;;;;;;5072799;28;20448;-68
2023/10/22 05:18:21;;;;;;;2.73;2.00;;;8.80;98.00;;;;;;5072725;28;20453;-68
2023/10/22 05:20:48;;;;;;;2.20;1.90;;;8.80;98.00;;;;;;5071467;28;20461;-67
2023/10/22 05:23:16;;;;;;;2.73;2.00;;;8.80;98.00;;;;;;5072668;28;20458;-68
2023/10/22 05:25:44;;;;;;;3.40;1.80;;;8.80;98.00;;;;;;5072451;28;20487;-68
2023/10/22 05:28:11;;;;;;;7.40;2.10;;;8.90;98.00;;;;;;5071945;28;20453;-68
2023/10/22 05:30:38;;;;;;;3.00;2.00;;;8.90;98.00;;;;;;5072201;28;20454;-68
2023/10/22 05:33:05;;;;;;;2.40;1.80;;;9.10;98.00;;;;;;5071984;28;20463;-68
2023/10/22 05:35:36;;;;;;;6.20;2.33;;;9.00;98.00;;;;;;5071941;28;20465;-68
2023/10/22 05:38:03;;;;;;;2.70;2.10;;;9.00;98.00;;;;;;5071085;28;20869;-68
2023/10/22 05:40:36;;;;;;;2.33;1.87;;;8.90;98.00;;;;;;5071911;28;20454;-68
2023/10/22 05:43:05;;;;;;;3.00;1.97;;;9.00;98.00;;;;;;5071863;28;20553;-68
2023/10/22 05:45:32;;;;;;;3.10;2.03;;;8.90;98.00;;;;;;5071616;28;20496;-67
2023/10/22 05:47:59;;;;;;;1.90;1.80;;;8.90;98.00;;;;;;5071575;28;20467;-67
2023/10/22 05:50:26;;;;;;;3.63;2.10;;;9.00;98.00;;;;;;5071657;28;20777;-68
2023/10/22 05:52:53;;;;;;;2.80;2.17;;;9.00;98.00;;;;;;5071650;28;20448;-68
2023/10/22 05:55:20;;;;;;;4.50;2.47;;;8.90;98.00;;;;;;5071678;28;20490;-68
2023/10/22 05:57:48;;;;;;;2.60;2.10;;;8.80;98.00;;;;;;5071651;28;20870;-63
2023/10/22 06:00:17;;;;;;;4.60;2.30;;;8.70;98.00;;;;;;5071801;28;20453;-63
2023/10/22 06:02:44;;;;;;;2.40;1.93;;;8.70;98.00;;;;;;5071362;28;20449;-63
2023/10/22 06:05:12;;;;;;;3.93;2.10;;;8.80;98.00;;;;;;5071347;28;20488;-62
2023/10/22 06:07:39;;;;;;;3.20;2.13;;;8.80;98.00;;;;;;5071167;28;20492;-62
2023/10/22 06:10:10;;;;;;;4.80;1.97;;;8.90;98.00;;;;;;5071362;28;20460;-63
2023/10/22 06:12:37;;;;;;;2.73;2.00;;;8.90;98.00;;;;;;5069968;28;20544;-63
2023/10/22 06:15:04;;;;;;;5.00;2.20;;;8.80;98.00;;;;;;5071148;28;20530;-63
2023/10/22 06:17:33;;;;;;;3.00;2.00;;;8.80;98.00;;;;;;5071083;28;20958;-63
2023/10/22 06:20:00;;;;;;;1.93;1.70;;;8.80;98.00;;;;;;5071290;28;20453;-63
2023/10/22 06:22:27;;;;;;;4.07;2.60;;;8.80;98.00;;;;;;5070943;28;20544;-63
2023/10/22 06:24:54;;;;;;;7.13;3.60;;;8.90;98.00;;;;;;5069858;28;20477;-62
2023/10/22 06:27:21;;;;;;;11.07;4.80;;;8.90;98.00;;;;;;5071292;28;20472;-63
2023/10/22 06:29:49;;;;;;;2.80;1.83;;;9.00;98.00;;;;;;5071335;28;20837;-63
2023/10/22 06:32:16;;;;;;;3.13;1.80;;;9.10;98.00;;;;;;5071037;28;20465;-63
2023/10/22 06:34:44;;;;;;;3.27;1.60;;;9.20;98.00;;;;;;5071223;28;20601;-62
2023/10/22 06:37:11;;;;;;;2.00;1.60;;;9.40;98.00;;;;;;5071037;28;20475;-63
2023/10/22 06:39:38;;;;;;;3.57;1.80;;;9.50;98.00;;;;;;5071112;28;20460;-63
2023/10/22 06:42:05;;;;;;;4.73;1.80;;;9.70;98.00;;;;;;5070810;28;20458;-63
2023/10/22 06:44:32;;;;;;;3.03;1.60;;;9.80;98.00;;;;;;5071098;28;20510;-62
2023/10/22 06:47:03;;;;;;;4.23;1.60;;;10.00;98.00;;;;;;5071381;28;20454;-63
2023/10/22 06:49:32;;;;;;;2.60;1.50;;;10.20;98.00;;;;;;5071153;28;20537;-64
2023/10/22 06:52:00;;;;;;;2.43;1.80;;;10.30;98.00;;;;;;5071211;28;20989;-63
2023/10/22 06:54:28;;;;;;;1.50;1.50;;;10.30;98.00;;;;;;5071397;28;20798;-63
2023/10/22 06:56:55;;;;;;;5.60;1.80;;;10.40;98.00;;;;;;5070283;28;20462;-63
2023/10/22 06:59:22;;;;;;;2.57;1.60;;;10.50;98.00;;;;;;5071354;28;20959;-63
2023/10/22 07:01:49;;;;;;;3.80;1.83;;;10.50;98.00;;;;;;5071444;28;20456;-63
2023/10/22 07:04:17;;;;;;;4.47;2.30;;;10.50;98.00;;;;;;5071294;28;20456;-63
2023/10/22 07:06:45;;;;;;;4.60;2.80;;;10.60;98.00;;;;;;5071077;28;20657;-63
2023/10/22 07:09:15;;;;;;;4.50;2.73;;;10.60;98.00;;;;;;5071059;28;20455;-63
2023/10/22 07:11:43;;;;;;;2.10;1.50;;;10.70;98.00;;;;;;5069879;28;20503;-63
2023/10/22 07:14:10;;;;;;;2.67;1.63;;;10.80;98.00;;;;;;5071260;28;20496;-63
2023/10/22 07:16:37;;;;;;;2.40;1.40;;;10.90;98.00;;;;;;5071048;28;20488;-63
2023/10/22 07:19:04;;;;;;;2.07;1.73;;;11.00;98.00;;;;;;5070966;28;20539;-63
2023/10/22 07:21:31;;;;;;;5.87;1.87;;;11.10;98.00;;;;;;5266647;22;20916;-63
2023/10/22 07:23:58;;;;;;;2.27;1.80;;;11.20;98.00;;;;;;5070979;28;20507;-63
2023/10/22 07:26:27;;;;;;;2.63;1.67;;;11.30;98.00;;;;;;5070799;28;20576;-63
2023/10/22 07:28:54;;;;;;;2.70;1.57;;;11.40;98.00;;;;;;5070844;28;20861;-63
2023/10/22 07:31:21;;;;;;;2.93;1.80;;;11.50;98.00;;;;;;5070912;28;20452;-63
2023/10/22 07:33:50;;;;;;;3.50;1.50;;;11.60;98.00;;;;;;5070876;28;20473;-63
2023/10/22 07:36:17;;;;;;;2.40;1.53;;;11.60;98.00;;;;;;5070703;28;20482;-63
2023/10/22 07:38:44;;;;;;;4.50;1.40;;;11.70;98.00;;;;;;5070877;28;20853;-63
2023/10/22 07:41:15;;;;;;;3.80;1.50;;;11.80;98.00;;;;;;5070874;28;20870;-63
2023/10/22 07:43:45;;;;;;;5.20;1.57;;;11.80;98.00;;;;;;5070663;28;20459;-63
2023/10/22 07:46:14;;;;;;;1.77;1.47;;;11.90;98.00;;;;;;5070675;28;20511;-63
2023/10/22 07:48:42;;;;;;;3.63;1.70;;;12.10;98.00;;;;;;5053038;28;20494;-63
2023/10/22 07:51:10;;;;;;;2.33;1.40;;;12.10;98.00;;;;;;5070732;28;20453;-63
2023/10/22 07:53:37;;;;;;;2.50;1.53;;;12.20;98.00;;;;;;5070656;28;21129;-63
2023/10/22 07:56:05;;;;;;;9.13;1.80;;;12.30;98.00;;;;;;5070908;28;20467;-63
2023/10/22 07:58:32;;;;;;;1.90;1.40;;;12.40;98.00;;;;;;5070583;28;21097;-63
2023/10/22 08:01:00;;;;;;;4.50;1.50;;;12.50;98.00;;;;;;5071897;28;20452;-63
2023/10/22 08:03:29;;;;;;;1.90;1.50;;;12.60;98.00;;;;;;5074124;28;20464;-63
2023/10/22 08:05:57;;;;;;;1.77;1.50;;;12.70;98.00;;;;;;5074115;28;21107;-63
2023/10/22 08:08:24;;;;;;;2.90;1.60;;;12.80;98.00;;;;;;5074006;28;20448;-63
2023/10/22 08:10:51;;;;;;;2.00;1.53;;;12.90;98.00;;;;;;5074119;28;20954;-63
2023/10/22 08:13:18;;;;;;;1.83;1.60;;;12.90;98.00;;;;;;5074099;28;20462;-63
2023/10/22 08:15:46;;;;;;;3.77;1.60;;;13.00;98.00;;;;;;5073997;28;20444;-63
2023/10/22 08:18:14;;;;;;;2.10;1.33;;;13.10;98.00;;;;;;5073982;28;20455;-63
2023/10/22 08:20:42;;;;;;;2.53;1.53;;;13.30;98.00;;;;;;5074016;28;20977;-62
2023/10/22 08:23:12;;;;;;;1.70;1.40;;;13.40;98.00;;;;;;5073836;28;20448;-64
2023/10/22 08:25:39;;;;;;;2.03;1.40;;;13.50;98.00;;;;;;5073761;28;20847;-63
2023/10/22 08:28:07;;;;;;;3.00;1.50;;;13.50;98.00;;;;;;5056094;28;20454;-63
2023/10/22 08:30:34;;;;;;;1.90;1.37;;;13.60;98.00;;;;;;5074024;28;20799;-63
2023/10/22 08:33:01;;;;;;;2.53;1.50;;;13.70;98.00;;;;;;5073750;28;20503;-63
2023/10/22 08:35:29;;;;;;;1.70;1.30;;;13.70;98.00;;;;;;5073820;28;20458;-63
2023/10/22 08:37:56;;;;;;;1.60;1.43;;;13.80;98.00;;;;;;5073737;28;20462;-63
2023/10/22 08:40:24;;;;;;;1.80;1.47;;;13.90;98.00;;;;;;5073959;28;20459;-63
2023/10/22 08:42:54;;;;;;;2.17;1.40;;;14.00;98.00;;;;;;5073731;28;20450;-63
2023/10/22 08:45:22;;;;;;;2.13;1.23;;;14.10;98.00;;;;;;5056407;28;20502;-63
2023/10/22 08:47:49;;;;;;;2.40;1.50;;;14.10;98.00;;;;;;5073625;28;20449;-63
2023/10/22 08:50:18;;;;;;;1.83;1.33;;;14.20;98.00;;;;;;5073586;28;20772;-63
2023/10/22 08:52:46;;;;;;;2.13;1.40;;;14.30;98.00;;;;;;5073319;28;20455;-63
2023/10/22 08:55:13;;;;;;;1.90;1.43;;;14.40;98.00;;;;;;5073196;28;20786;-63
2023/10/22 08:57:42;;;;;;;3.13;1.50;;;14.60;98.00;;;;;;5073207;28;20510;-64
2023/10/22 09:00:13;;;;;;;2.80;1.40;;;14.60;98.00;;;;;;5073185;28;20898;-64
2023/10/22 09:02:42;;;;;;;2.33;1.50;;;14.70;98.00;;;;;;5073111;28;20477;-63
2023/10/22 09:05:09;;;;;;;1.60;1.40;;;14.70;98.00;;;;;;5073362;28;20821;-63
2023/10/22 09:07:55;;;;;;;5.37;1.70;;;14.90;98.00;;;;;;5073036;28;20485;-63
2023/10/22 09:10:28;;;;;;;2.93;1.40;;;15.00;98.00;;;;;;5073015;28;20460;-63
2023/10/22 09:13:03;;;;;;;4.03;1.70;;;15.00;98.00;;;;;;5072911;28;20498;-64
2023/10/22 09:15:37;;;;;;;3.93;1.90;;;15.10;98.00;;;;;;5072937;28;20463;-64
2023/10/22 09:18:06;;;;;;;1.60;1.50;;;15.30;98.00;;;;;;5072791;28;20546;-63
2023/10/22 09:20:34;;;;;;;1.83;1.57;;;15.30;98.00;;;;;;5072269;28;20861;-63
2023/10/22 09:23:17;;;;;;;1.43;1.40;;;15.40;98.00;;;;;;5072884;28;20482;-63
2023/10/22 09:25:45;;;;;;;4.03;1.60;;;15.40;98.00;;;;;;5072741;28;20992;-64
2023/10/22 09:28:14;;;;;;;3.10;1.50;;;15.50;98.00;;;;;;5072533;28;20458;-63
2023/10/22 09:30:41;;;;;;;2.13;1.60;;;15.60;98.00;;;;;;5072533;28;20453;-63
2023/10/22 09:33:09;;;;;;;1.93;1.60;;;15.70;98.00;;;;;;5054689;28;20946;-63
2023/10/22 09:35:37;;;;;;;2.13;1.47;;;15.80;98.00;;;;;;5072710;28;20508;-63
2023/10/22 09:38:05;;;;;;;2.40;1.40;;;16.00;98.00;;;;;;5072200;28;20477;-63
2023/10/22 09:40:34;;;;;;;2.90;1.47;;;16.20;98.00;;;;;;5072431;28;20537;-64
2023/10/22 09:43:04;;;;;;;1.93;1.50;;;16.50;98.00;;;;;;5072368;28;20945;-63
2023/10/22 09:45:32;;;;;;;1.70;1.40;;;16.60;98.00;;;;;;5072068;28;20617;-64
2023/10/22 09:48:06;;;;;;;2.17;1.70;;;16.70;98.00;;;;;;5072173;28;20456;-64
2023/10/22 09:50:37;;;;;;;3.20;1.40;;;16.80;98.00;;;;;;5054345;28;20510;-63
2023/10/22 09:53:10;;;;;;;2.43;1.50;;;16.90;98.00;;;;;;5072208;28;20495;-63
2023/10/22 09:55:40;;;;;;;2.70;1.70;;;16.90;98.00;;;;;;5072046;28;20459;-64
2023/10/22 09:58:12;;;;;;;5.00;1.70;;;16.90;98.00;;;;;;5072008;28;20943;-64
2023/10/22 10:00:39;;;;;;;3.17;1.60;;;17.00;98.00;;;;;;5072150;28;20447;-63
2023/10/22 10:03:07;;;;;;;1.60;1.40;;;17.00;98.00;;;;;;5072016;28;20456;-63
2023/10/22 10:05:35;;;;;;;1.80;1.50;;;17.10;98.00;;;;;;5072011;28;20456;-64
2023/10/22 10:08:03;;;;;;;2.27;1.57;;;17.10;98.00;;;;;;5071732;28;20496;-63
2023/10/22 10:10:31;;;;;;;2.60;1.40;;;17.20;98.00;;;;;;5071935;28;20444;-63
2023/10/22 10:13:00;;;;;;;6.20;1.50;;;17.10;98.00;;;;;;5071838;28;20456;-63
2023/10/22 10:15:31;;;;;;;3.43;1.60;;;17.20;98.00;;;;;;5071862;28;20447;-64
2023/10/22 10:18:00;;;;;;;2.53;1.50;;;17.00;98.00;;;;;;5071791;28;20897;-64
2023/10/22 10:20:30;;;;;;;2.00;1.60;;;16.90;98.00;;;;;;5071730;28;20467;-63
2023/10/22 10:23:09;;;;;;;3.77;2.03;;;17.00;98.00;;;;;;5071662;28;20965;-63
2023/10/22 10:25:38;;;;;;;5.73;1.50;;;17.10;98.00;;;;;;5071735;28;20495;-64
2023/10/22 10:28:08;;;;;;;3.97;1.50;;;17.30;98.00;;;;;;5071732;28;20577;-63
2023/10/22 10:30:37;;;;;;;6.93;1.80;;;17.40;98.00;;;;;;5071538;28;20449;-64
2023/10/22 10:33:04;;;;;;;1.97;1.50;;;17.40;98.00;;;;;;5071608;28;20452;-64
2023/10/22 10:35:42;;;;;;;2.77;1.60;;;17.70;98.00;;;;;;5071636;28;20460;-63
2023/10/22 10:38:29;;;;;;;2.03;1.43;;;18.00;98.00;;;;;;5071487;28;20514;-64
2023/10/22 10:40:57;;;;;;;2.03;1.50;;;18.30;98.00;;;;;;5071530;28;20444;-63
2023/10/22 10:44:08;;;;;;;3.53;1.70;;;18.40;98.00;;;;;;5071293;28;20816;-64
2023/10/22 10:46:35;;;;;;;2.80;1.60;;;18.60;98.00;;;;;;5071253;28;20520;-64
2023/10/22 10:49:02;;;;;;;2.00;1.47;;;18.50;98.00;;;;;;5071271;28;20487;-63
2023/10/22 10:51:29;;;;;;;3.53;1.60;;;18.30;98.00;;;;;;5071168;28;20947;-63
2023/10/22 10:54:21;;;;;;;1.83;1.47;;;18.00;98.00;;;;;;5071247;28;20457;-64
2023/10/22 10:56:50;;;;;;;2.47;1.50;;;17.90;98.00;;;;;;5071375;28;20459;-63
2023/10/22 10:59:35;;;;;;;2.63;1.33;;;17.70;98.00;;;;;;5071066;28;20453;-64
2023/10/22 11:02:08;;;;;;;1.60;1.33;;;17.90;98.00;;;;;;5071095;28;20479;-64
2023/10/22 11:04:38;;;;;;;2.70;1.50;;;18.30;98.00;;;;;;5071196;28;20488;-63
2023/10/22 11:07:05;;;;;;;1.57;1.37;;;19.00;98.00;;;;;;5053633;28;20500;-63
2023/10/22 11:09:34;;;;;;;3.50;1.80;;;19.20;98.00;;;;;;5071005;28;20842;-64
2023/10/22 11:12:04;;;;;;;3.47;1.60;;;19.70;98.00;;;;;;5071205;28;20456;-64
2023/10/22 11:14:35;;;;;;;2.13;1.40;;;19.80;98.00;;;;;;5071002;28;20460;-64
2023/10/22 11:17:03;;;;;;;1.80;1.50;;;19.40;98.00;;;;;;5070959;28;20487;-63
2023/10/22 11:19:32;;;;;;;3.00;1.40;;;19.00;98.00;;;;;;5070943;28;20472;-63
2023/10/22 11:21:59;;;;;;;3.97;1.60;;;18.70;98.00;;;;;;5070930;28;20465;-64
2023/10/22 11:24:30;;;;;;;6.80;1.70;;;19.10;98.00;;;;;;5053102;28;20457;-64
2023/10/22 11:26:58;;;;;;;1.63;1.47;;;19.20;98.00;;;;;;5071068;28;20897;-63
2023/10/22 11:29:25;;;;;;;1.50;1.30;;;19.40;98.00;;;;;;5070768;28;20453;-64
2023/10/22 11:31:57;;;;;;;5.50;1.60;;;19.90;98.00;;;;;;5071336;28;20456;-64
2023/10/22 11:34:24;;;;;;;2.10;1.50;;;20.30;97.40;;;;;;5070908;28;20891;-63
2023/10/22 11:36:58;;;;;;;2.10;1.63;;;20.50;95.50;;;;;;5055644;28;20467;-63
2023/10/22 11:39:34;;;;;;;3.23;1.70;;;20.90;95.70;;;;;;5074640;28;20449;-64
2023/10/22 11:42:02;;;;;;;5.00;1.57;;;21.10;93.50;;;;;;5074699;28;20894;-64
2023/10/22 11:44:33;;;;;;;2.60;1.80;;;21.30;92.70;;;;;;5074689;28;20502;-63
2023/10/22 11:47:03;;;;;;;2.80;1.60;;;21.50;92.40;;;;;;5074710;28;20984;-64
2023/10/22 11:49:31;;;;;;;3.00;1.50;;;21.70;91.60;;;;;;5074632;28;20479;-65
2023/10/22 11:51:58;;;;;;;2.63;1.50;;;21.80;90.60;;;;;;5074657;28;20475;-64
2023/10/22 11:54:44;;;;;;;1.60;1.37;;;22.20;91.00;;;;;;5074433;28;20453;-64
2023/10/22 11:57:13;;;;;;;2.53;1.60;;;22.60;90.20;;;;;;5074231;28;20981;-64
2023/10/22 11:59:40;;;;;;;2.03;1.47;;;22.30;89.70;;;;;;5074450;28;20506;-64
2023/10/22 12:02:11;;;;;;;3.10;1.60;;;22.60;90.30;;;;;;5074679;28;20453;-64
2023/10/22 12:04:38;;;;;;;4.20;1.70;;;22.70;89.30;;;;;;5074463;28;20951;-63
2023/10/22 12:07:05;;;;;;;3.00;1.60;;;22.70;89.90;;;;;;5074309;28;20522;-64
2023/10/22 12:09:32;;;;;;;1.97;1.60;;;22.50;87.90;;;;;;5074083;28;20514;-65
2023/10/22 12:12:00;;;;;;;4.43;1.60;;;22.00;89.50;;;;;;5074256;28;20476;-64
2023/10/22 12:14:27;;;;;;;2.10;1.40;;;22.00;89.40;;;;;;5074067;28;20548;-64
2023/10/22 12:16:54;;;;;;;3.47;1.63;;;22.20;89.90;;;;;;5074073;28;20549;-64
2023/10/22 12:19:22;;;;;;;3.50;1.60;;;22.40;88.30;;;;;;5073822;28;20449;-64
2023/10/22 12:21:50;;;;;;;3.47;1.70;;;22.80;89.20;;;;;;5073833;28;20457;-64
2023/10/22 12:24:17;;;;;;;2.67;1.50;;;22.80;87.90;;;;;;5073862;28;20448;-65
2023/10/22 12:26:44;;;;;;;1.40;1.30;;;22.60;87.40;;;;;;5073375;28;20512;-64
2023/10/22 12:29:11;;;;;;;1.60;1.40;;;22.50;89.40;;;;;;5073562;28;20619;-64
2023/10/22 12:31:38;;;;;;;1.40;1.23;;;22.80;87.80;;;;;;5073763;28;20460;-63
2023/10/22 12:34:08;;;;;;;3.90;1.63;;;22.70;87.80;;;;;;5073650;28;20872;-64
2023/10/22 12:36:37;;;;;;;2.30;1.33;;;22.50;87.90;;;;;;5055719;28;20542;-64
2023/10/22 12:39:07;;;;;;;2.00;1.40;;;22.90;88.40;;;;;;5073715;28;20441;-64
2023/10/22 12:41:34;;;;;;;1.97;1.40;;;23.30;89.10;;;;;;5073622;28;20457;-64
2023/10/22 12:44:03;;;;;;;3.27;1.70;;;23.70;85.30;;;;;;5073462;28;20990;-64
2023/10/22 12:46:31;;;;;;;1.97;1.80;;;23.60;85.00;;;;;;5072795;28;20448;-64
2023/10/22 12:48:59;;;;;;;1.40;1.37;;;23.80;86.10;;;;;;5073488;28;20847;-65
2023/10/22 12:51:27;;;;;;;1.90;1.60;;;24.00;85.90;;;;;;5073229;28;20507;-64
2023/10/22 12:53:55;;;;;;;2.77;1.20;;;24.30;84.40;;;;;;5073343;28;20452;-64
2023/10/22 12:56:22;;;;;;;4.07;1.47;;;24.30;84.60;;;;;;5073135;28;20444;-64